createdAt,value
2018-09-30T00:00:14.032Z,99175.00
2018-09-30T00:02:42.812Z,99168.00
2018-09-30T00:05:11.720Z,99153.00
2018-09-30T00:07:40.723Z,99150.00
2018-09-30T00:10:09.525Z,99160.00
2018-09-30T00:12:38.391Z,99164.00
2018-09-30T00:15:07.287Z,99141.00
2018-09-30T00:17:36.293Z,99149.00
2018-09-30T00:20:05.052Z,99143.00
2018-09-30T00:22:33.948Z,99140.00
2018-09-30T00:25:08.126Z,99145.00
2018-09-30T00:27:37.062Z,99147.00
2018-09-30T00:30:06.094Z,99147.00
2018-09-30T00:32:34.858Z,99142.00
2018-09-30T00:35:03.554Z,99147.00
2018-09-30T00:37:32.334Z,99138.00
2018-09-30T00:40:01.316Z,99146.00
2018-09-30T00:42:30.194Z,99142.00
2018-09-30T00:44:58.900Z,99139.00
2018-09-30T00:47:27.603Z,99136.00
2018-09-30T00:49:56.468Z,99136.00
2018-09-30T00:52:25.206Z,99131.00
2018-09-30T00:54:53.854Z,99143.00
2018-09-30T00:57:22.536Z,99139.00
2018-09-30T00:59:51.193Z,99131.00
2018-09-30T01:02:20.235Z,99129.00
2018-09-30T01:04:49.017Z,99118.00
2018-09-30T01:07:17.812Z,99124.00
2018-09-30T01:09:46.539Z,99121.00
2018-09-30T01:12:15.672Z,99108.00
2018-09-30T01:14:44.706Z,99122.00
2018-09-30T01:17:13.472Z,99115.00
2018-09-30T01:19:42.540Z,99114.00
2018-09-30T01:22:11.228Z,99115.00
2018-09-30T01:24:39.948Z,99104.00
2018-09-30T01:27:08.624Z,99105.00
2018-09-30T01:29:37.298Z,99108.00
2018-09-30T01:32:06.102Z,99105.00
2018-09-30T01:34:34.779Z,99105.00
2018-09-30T01:37:03.467Z,99107.00
2018-09-30T01:39:32.489Z,99114.00
2018-09-30T01:42:02.279Z,99106.00
2018-09-30T01:44:31.077Z,99112.00
2018-09-30T01:47:00.159Z,99105.00
2018-09-30T01:49:28.968Z,99109.00
2018-09-30T01:53:05.154Z,99106.00
2018-09-30T01:55:34.036Z,99102.00
2018-09-30T01:58:03.925Z,99096.00
2018-09-30T02:00:33.091Z,99100.00
2018-09-30T02:03:02.459Z,99090.00
2018-09-30T02:05:32.289Z,99098.00
2018-09-30T02:08:01.804Z,99096.00
2018-09-30T02:10:31.242Z,99084.00
2018-09-30T02:13:00.535Z,99084.00
2018-09-30T02:15:32.862Z,99088.00
2018-09-30T02:18:04.585Z,99090.00
2018-09-30T02:20:34.234Z,99093.00
2018-09-30T02:23:03.582Z,99095.00
2018-09-30T02:25:32.523Z,99092.00
2018-09-30T02:28:01.491Z,99086.00
2018-09-30T02:30:30.182Z,99085.00
2018-09-30T02:32:59.275Z,99087.00
2018-09-30T02:35:28.266Z,99080.00
2018-09-30T02:37:57.317Z,99083.00
2018-09-30T02:40:26.188Z,99082.00
2018-09-30T02:42:54.960Z,99062.00
2018-09-30T02:45:24.057Z,99061.00
2018-09-30T02:47:52.850Z,99055.00
2018-09-30T02:50:21.781Z,99059.00
2018-09-30T02:52:50.711Z,99056.00
2018-09-30T02:55:19.448Z,99049.00
2018-09-30T02:57:48.415Z,99049.00
2018-09-30T03:00:17.291Z,99041.00
2018-09-30T03:02:45.995Z,99041.00
2018-09-30T03:05:14.771Z,99047.00
2018-09-30T03:07:48.758Z,99047.00
2018-09-30T03:10:17.535Z,99041.00
2018-09-30T03:12:46.468Z,99050.00
2018-09-30T03:15:15.276Z,99041.00
2018-09-30T03:17:44.248Z,99043.00
2018-09-30T03:20:13.084Z,99044.00
2018-09-30T03:22:41.800Z,99048.00
2018-09-30T03:25:10.531Z,99043.00
2018-09-30T03:27:39.226Z,99041.00
2018-09-30T03:30:08.305Z,99029.00
2018-09-30T03:32:37.291Z,99029.00
2018-09-30T03:35:06.486Z,99016.00
2018-09-30T03:37:35.598Z,99014.00
2018-09-30T03:40:04.807Z,99010.00
2018-09-30T03:42:33.826Z,99003.00
2018-09-30T03:45:02.593Z,99003.00
2018-09-30T03:47:31.463Z,98997.00
2018-09-30T03:50:00.757Z,98991.00
2018-09-30T03:52:29.554Z,98995.00
2018-09-30T03:54:58.222Z,98989.00
2018-09-30T03:57:27.252Z,98993.00
2018-09-30T03:59:56.148Z,98994.00
2018-09-30T04:02:24.990Z,98983.00
2018-09-30T04:04:53.868Z,98995.00
2018-09-30T04:07:22.929Z,98998.00
2018-09-30T04:09:51.825Z,98994.00
2018-09-30T04:12:20.636Z,98989.00
2018-09-30T04:14:49.632Z,98990.00
2018-09-30T04:17:18.385Z,98979.00
2018-09-30T04:19:47.251Z,98971.00
2018-09-30T04:22:16.136Z,98977.00
2018-09-30T04:24:45.163Z,98977.00
2018-09-30T04:27:14.068Z,98963.00
2018-09-30T04:29:43.095Z,98950.00
2018-09-30T04:32:12.006Z,98960.00
2018-09-30T04:34:40.867Z,98967.00
2018-09-30T04:37:09.897Z,98964.00
2018-09-30T04:39:38.792Z,98954.00
2018-09-30T04:42:07.539Z,98960.00
2018-09-30T04:44:36.402Z,98966.00
2018-09-30T04:47:05.379Z,98954.00
2018-09-30T04:49:34.397Z,98949.00
2018-09-30T04:52:03.228Z,98962.00
2018-09-30T04:54:32.077Z,98960.00
2018-09-30T04:57:00.879Z,98962.00
2018-09-30T04:59:29.778Z,98951.00
2018-09-30T05:01:58.767Z,98953.00
2018-09-30T05:04:27.682Z,98953.00
2018-09-30T05:06:56.599Z,98948.00
2018-09-30T05:09:25.512Z,98935.00
2018-09-30T05:11:54.505Z,98944.00
2018-09-30T05:14:23.427Z,98941.00
2018-09-30T05:16:52.218Z,98942.00
2018-09-30T05:19:20.907Z,98938.00
2018-09-30T05:21:49.895Z,98937.00
2018-09-30T05:24:18.721Z,98936.00
2018-09-30T05:26:47.776Z,98935.00
2018-09-30T05:29:17.048Z,98936.00
2018-09-30T05:31:46.577Z,98938.00
2018-09-30T05:34:15.505Z,98942.00
2018-09-30T05:36:44.368Z,98940.00
2018-09-30T05:39:13.449Z,98943.00
2018-09-30T05:41:42.259Z,98947.00
2018-09-30T05:44:11.047Z,98945.00
2018-09-30T05:46:40.103Z,98941.00
2018-09-30T05:49:09.308Z,98929.00
2018-09-30T05:51:38.384Z,98932.00
2018-09-30T05:54:07.420Z,98940.00
2018-09-30T05:56:36.417Z,98933.00
2018-09-30T05:59:05.285Z,98929.00
2018-09-30T06:01:34.174Z,98933.00
2018-09-30T06:04:02.927Z,98936.00
2018-09-30T06:06:31.685Z,98931.00
2018-09-30T06:09:00.610Z,98930.00
2018-09-30T06:11:29.349Z,98931.00
2018-09-30T06:13:58.244Z,98939.00
2018-09-30T06:16:27.232Z,98932.00
2018-09-30T06:18:56.234Z,98925.00
2018-09-30T06:21:25.330Z,98930.00
2018-09-30T06:23:54.297Z,98938.00
2018-09-30T06:26:23.310Z,98932.00
2018-09-30T06:28:52.128Z,98926.00
2018-09-30T06:31:20.912Z,98927.00
2018-09-30T06:33:50.091Z,98928.00
2018-09-30T06:36:18.915Z,98931.00
2018-09-30T06:38:47.868Z,98921.00
2018-09-30T06:41:16.891Z,98922.00
2018-09-30T06:43:45.781Z,98929.00
2018-09-30T06:46:14.589Z,98926.00
2018-09-30T06:48:43.486Z,98932.00
2018-09-30T06:51:12.338Z,98933.00
2018-09-30T06:53:40.972Z,98935.00
2018-09-30T06:56:09.697Z,98934.00
2018-09-30T06:58:38.511Z,98930.00
2018-09-30T07:01:07.408Z,98933.00
2018-09-30T07:04:17.249Z,98934.00
2018-09-30T07:06:48.398Z,98937.00
2018-09-30T07:09:17.142Z,98925.00
2018-09-30T07:11:45.992Z,98926.00
2018-09-30T07:14:16.830Z,98921.00
2018-09-30T07:16:45.683Z,98929.00
2018-09-30T07:19:14.583Z,98920.00
2018-09-30T07:21:43.450Z,98920.00
2018-09-30T07:24:12.231Z,98914.00
2018-09-30T07:26:41.190Z,98925.00
2018-09-30T07:29:10.389Z,98917.00
2018-09-30T07:31:39.155Z,98916.00
2018-09-30T07:34:08.041Z,98910.00
2018-09-30T07:36:36.871Z,98907.00
2018-09-30T07:39:07.775Z,98904.00
2018-09-30T07:41:36.564Z,98903.00
2018-09-30T07:44:05.328Z,98905.00
2018-09-30T07:46:34.651Z,98896.00
2018-09-30T07:49:03.523Z,98891.00
2018-09-30T07:51:32.285Z,98892.00
2018-09-30T07:54:01.288Z,98902.00
2018-09-30T07:56:30.012Z,98900.00
2018-09-30T07:58:58.905Z,98895.00
2018-09-30T08:01:27.744Z,98887.00
2018-09-30T08:03:56.679Z,98877.00
2018-09-30T08:06:25.584Z,98866.00
2018-09-30T08:08:54.285Z,98871.00
2018-09-30T08:11:23.510Z,98861.00
2018-09-30T08:13:52.284Z,98873.00
2018-09-30T08:16:21.234Z,98875.00
2018-09-30T08:18:50.244Z,98883.00
2018-09-30T08:21:19.032Z,98868.00
2018-09-30T08:23:48.080Z,98870.00
2018-09-30T08:26:17.238Z,98869.00
2018-09-30T08:28:46.117Z,98872.00
2018-09-30T08:31:16.094Z,98867.00
2018-09-30T08:33:44.926Z,98860.00
2018-09-30T08:36:13.713Z,98852.00
2018-09-30T08:38:42.886Z,98858.00
2018-09-30T08:41:13.112Z,98855.00
2018-09-30T08:43:43.189Z,98847.00
2018-09-30T08:46:12.194Z,98851.00
2018-09-30T08:48:40.899Z,98844.00
2018-09-30T08:51:09.959Z,98839.00
2018-09-30T08:53:40.044Z,98838.00
2018-09-30T08:56:09.481Z,98834.00
2018-09-30T08:58:38.267Z,98831.00
2018-09-30T09:01:07.201Z,98825.00
2018-09-30T09:03:36.132Z,98824.00
2018-09-30T09:06:06.202Z,98820.00
2018-09-30T09:08:36.065Z,98824.00
2018-09-30T09:11:05.094Z,98823.00
2018-09-30T09:13:34.429Z,98816.00
2018-09-30T09:16:03.184Z,98802.00
2018-09-30T09:18:32.090Z,98803.00
2018-09-30T09:21:01.053Z,98799.00
2018-09-30T09:23:31.824Z,98797.00
2018-09-30T09:26:00.860Z,98781.00
2018-09-30T09:28:29.982Z,98778.00
2018-09-30T09:30:58.984Z,98788.00
2018-09-30T09:33:27.670Z,98780.00
2018-09-30T09:35:57.539Z,98783.00
2018-09-30T09:38:26.410Z,98775.00
2018-09-30T09:40:55.331Z,98772.00
2018-09-30T09:43:24.347Z,98774.00
2018-09-30T09:45:53.270Z,98762.00
2018-09-30T09:48:22.131Z,98765.00
2018-09-30T09:50:50.977Z,98779.00
2018-09-30T09:53:19.852Z,98763.00
2018-09-30T09:55:48.915Z,98768.00
2018-09-30T09:58:17.678Z,98767.00
2018-09-30T10:00:46.723Z,98758.00
2018-09-30T10:03:16.675Z,98745.00
2018-09-30T10:05:45.456Z,98747.00
2018-09-30T10:08:14.622Z,98753.00
2018-09-30T10:10:43.688Z,98738.00
2018-09-30T10:13:12.915Z,98735.00
2018-09-30T10:15:41.795Z,98735.00
2018-09-30T10:18:10.819Z,98717.00
2018-09-30T10:20:39.683Z,98725.00
2018-09-30T10:23:08.411Z,98706.00
2018-09-30T10:25:37.308Z,98696.00
2018-09-30T10:28:06.456Z,98704.00
2018-09-30T10:30:35.156Z,98697.00
2018-09-30T10:33:06.046Z,98700.00
2018-09-30T10:35:34.859Z,98694.00
2018-09-30T10:38:03.759Z,98682.00
2018-09-30T10:40:32.653Z,98690.00
2018-09-30T10:43:01.486Z,98680.00
2018-09-30T10:45:30.313Z,98673.00
2018-09-30T10:47:59.121Z,98676.00
2018-09-30T10:50:28.054Z,98675.00
2018-09-30T10:52:57.225Z,98673.00
2018-09-30T10:55:26.228Z,98666.00
2018-09-30T10:57:55.545Z,98661.00
2018-09-30T11:00:24.393Z,98666.00
2018-09-30T11:02:53.550Z,98658.00
2018-09-30T11:05:22.768Z,98654.00
2018-09-30T11:08:11.898Z,98647.00
2018-09-30T11:10:40.699Z,98639.00
2018-09-30T11:13:09.666Z,98634.00
2018-09-30T11:15:38.664Z,98631.00
2018-09-30T11:18:07.773Z,98639.00
2018-09-30T11:20:36.605Z,98619.00
2018-09-30T11:23:05.443Z,98602.00
2018-09-30T11:25:34.334Z,98593.00
2018-09-30T11:28:03.134Z,98590.00
2018-09-30T11:30:32.147Z,98584.00
2018-09-30T11:33:00.908Z,98594.00
2018-09-30T11:35:29.810Z,98578.00
2018-09-30T11:37:58.668Z,98583.00
2018-09-30T11:40:27.469Z,98577.00
2018-09-30T11:42:56.467Z,98586.00
2018-09-30T11:45:26.471Z,98584.00
2018-09-30T11:47:55.303Z,98571.00
2018-09-30T11:50:24.340Z,98576.00
2018-09-30T11:52:53.306Z,98562.00
2018-09-30T11:55:22.258Z,98548.00
2018-09-30T11:57:51.140Z,98558.00
2018-09-30T12:00:20.087Z,98557.00
2018-09-30T12:02:48.830Z,98554.00
2018-09-30T12:05:17.632Z,98544.00
2018-09-30T12:07:46.626Z,98544.00
2018-09-30T12:10:15.432Z,98545.00
2018-09-30T12:12:44.460Z,98538.00
2018-09-30T12:15:13.225Z,98518.00
2018-09-30T12:17:42.179Z,98524.00
2018-09-30T12:20:11.064Z,98512.00
2018-09-30T12:22:40.092Z,98508.00
2018-09-30T12:25:08.887Z,98499.00
2018-09-30T12:27:37.748Z,98496.00
2018-09-30T12:30:06.716Z,98489.00
2018-09-30T12:32:35.551Z,98488.00
2018-09-30T12:35:04.275Z,98487.00
2018-09-30T12:37:33.062Z,98488.00
2018-09-30T12:40:02.043Z,98480.00
2018-09-30T12:42:30.823Z,98489.00
2018-09-30T12:44:59.974Z,98477.00
2018-09-30T12:47:29.921Z,98481.00
2018-09-30T12:49:58.931Z,98476.00
2018-09-30T12:52:27.896Z,98477.00
2018-09-30T12:54:57.027Z,98483.00
2018-09-30T12:57:26.150Z,98484.00
2018-09-30T12:59:55.072Z,98474.00
2018-09-30T13:02:24.954Z,98466.00
2018-09-30T13:04:53.987Z,98469.00
2018-09-30T13:07:23.202Z,98480.00
2018-09-30T13:09:51.968Z,98469.00
2018-09-30T13:12:21.426Z,98471.00
2018-09-30T13:14:50.501Z,98464.00
2018-09-30T13:17:19.490Z,98466.00
2018-09-30T13:19:48.488Z,98457.00
2018-09-30T13:22:18.062Z,98468.00
2018-09-30T13:24:46.957Z,98454.00
2018-09-30T13:27:16.295Z,98456.00
2018-09-30T13:29:45.045Z,98463.00
2018-09-30T13:32:14.058Z,98451.00
2018-09-30T13:34:43.157Z,98453.00
2018-09-30T13:37:12.109Z,98453.00
2018-09-30T13:39:40.966Z,98451.00
2018-09-30T13:42:10.487Z,98440.00
2018-09-30T13:44:39.461Z,98433.00
2018-09-30T13:47:08.692Z,98429.00
2018-09-30T13:49:37.513Z,98421.00
2018-09-30T13:52:06.536Z,98422.00
2018-09-30T13:54:35.643Z,98426.00
2018-09-30T13:57:04.417Z,98428.00
2018-09-30T13:59:33.511Z,98416.00
2018-09-30T14:02:02.403Z,98423.00
2018-09-30T14:04:31.601Z,98412.00
2018-09-30T14:07:00.640Z,98407.00
2018-09-30T14:09:29.605Z,98393.00
2018-09-30T14:11:58.481Z,98390.00
2018-09-30T14:14:27.437Z,98382.00
2018-09-30T14:16:56.273Z,98381.00
2018-09-30T14:19:25.506Z,98381.00
2018-09-30T14:21:54.454Z,98383.00
2018-09-30T14:24:23.461Z,98376.00
2018-09-30T14:26:52.584Z,98379.00
2018-09-30T14:29:21.799Z,98383.00
2018-09-30T14:31:51.751Z,98377.00
2018-09-30T14:34:21.041Z,98358.00
2018-09-30T14:36:49.855Z,98358.00
2018-09-30T14:39:18.812Z,98358.00
2018-09-30T14:41:48.383Z,98349.00
2018-09-30T14:44:17.268Z,98338.00
2018-09-30T14:46:46.538Z,98344.00
2018-09-30T14:49:15.534Z,98346.00
2018-09-30T14:51:44.854Z,98337.00
2018-09-30T14:54:13.831Z,98343.00
2018-09-30T14:56:42.663Z,98346.00
2018-09-30T14:59:11.640Z,98337.00
2018-09-30T15:01:40.624Z,98343.00
2018-09-30T15:04:09.686Z,98337.00
2018-09-30T15:06:38.900Z,98340.00
2018-09-30T15:09:09.170Z,98340.00
2018-09-30T15:11:38.279Z,98336.00
2018-09-30T15:14:07.242Z,98336.00
2018-09-30T15:16:36.333Z,98338.00
2018-09-30T15:19:05.318Z,98332.00
2018-09-30T15:21:35.381Z,98328.00
2018-09-30T15:24:04.231Z,98330.00
2018-09-30T15:26:33.114Z,98334.00
2018-09-30T15:29:02.065Z,98319.00
2018-09-30T15:31:30.935Z,98319.00
2018-09-30T15:34:05.993Z,98323.00
2018-09-30T15:36:34.785Z,98317.00
2018-09-30T15:39:04.891Z,98319.00
2018-09-30T15:41:33.958Z,98304.00
2018-09-30T15:44:02.769Z,98309.00
2018-09-30T15:46:31.648Z,98302.00
2018-09-30T15:49:00.472Z,98306.00
2018-09-30T15:51:29.539Z,98308.00
2018-09-30T15:53:58.905Z,98292.00
2018-09-30T15:56:28.035Z,98296.00
2018-09-30T15:58:56.822Z,98294.00
2018-09-30T16:01:25.987Z,98295.00
2018-09-30T16:03:55.153Z,98296.00
2018-09-30T16:06:23.935Z,98293.00
2018-09-30T16:08:52.894Z,98292.00
2018-09-30T16:11:22.023Z,98287.00
2018-09-30T16:13:50.989Z,98292.00
2018-09-30T16:16:19.779Z,98284.00
2018-09-30T16:18:48.407Z,98284.00
2018-09-30T16:21:17.216Z,98280.00
2018-09-30T16:23:46.687Z,98275.00
2018-09-30T16:26:15.427Z,98273.00
2018-09-30T16:28:44.131Z,98269.00
2018-09-30T16:31:13.257Z,98271.00
2018-09-30T16:33:41.909Z,98280.00
2018-09-30T16:36:11.045Z,98275.00
2018-09-30T16:38:39.852Z,98273.00
2018-09-30T16:41:08.713Z,98268.00
2018-09-30T16:43:37.522Z,98271.00
2018-09-30T16:46:06.893Z,98271.00
2018-09-30T16:48:35.890Z,98270.00
2018-09-30T16:51:07.216Z,98274.00
2018-09-30T16:53:36.441Z,98275.00
2018-09-30T16:56:05.635Z,98267.00
2018-09-30T16:58:34.537Z,98275.00
2018-09-30T17:01:04.232Z,98281.00
2018-09-30T17:03:33.384Z,98274.00
2018-09-30T17:06:03.278Z,98286.00
2018-09-30T17:08:32.143Z,98284.00
2018-09-30T17:11:02.360Z,98288.00
2018-09-30T17:13:30.996Z,98288.00
2018-09-30T17:16:01.087Z,98280.00
2018-09-30T17:18:30.037Z,98287.00
2018-09-30T17:21:00.178Z,98279.00
2018-09-30T17:23:29.346Z,98280.00
2018-09-30T17:25:59.473Z,98283.00
2018-09-30T17:28:29.326Z,98282.00
2018-09-30T17:30:59.816Z,98286.00
2018-09-30T17:33:31.598Z,98289.00
2018-09-30T17:36:00.833Z,98286.00
2018-09-30T17:38:29.983Z,98292.00
2018-09-30T17:40:59.219Z,98294.00
2018-09-30T17:43:30.166Z,98295.00
2018-09-30T17:45:59.284Z,98296.00
2018-09-30T17:48:28.917Z,98287.00
2018-09-30T17:50:58.837Z,98287.00
2018-09-30T17:53:29.477Z,98285.00
2018-09-30T17:56:01.403Z,98289.00
2018-09-30T17:58:31.180Z,98282.00
2018-09-30T18:01:02.989Z,98286.00
2018-09-30T18:03:31.982Z,98290.00
2018-09-30T18:06:00.850Z,98282.00
2018-09-30T18:08:29.720Z,98291.00
2018-09-30T18:10:58.960Z,98285.00
2018-09-30T18:13:27.896Z,98288.00
2018-09-30T18:15:57.017Z,98287.00
2018-09-30T18:18:26.022Z,98286.00
2018-09-30T18:20:55.278Z,98280.00
2018-09-30T18:23:24.538Z,98280.00
2018-09-30T18:25:53.698Z,98295.00
2018-09-30T18:28:22.790Z,98281.00
2018-09-30T18:30:51.745Z,98275.00
2018-09-30T18:33:21.053Z,98272.00
2018-09-30T18:35:50.077Z,98270.00
2018-09-30T18:38:19.291Z,98268.00
2018-09-30T18:40:49.391Z,98266.00
2018-09-30T18:43:18.133Z,98269.00
2018-09-30T18:45:46.886Z,98268.00
2018-09-30T18:48:15.888Z,98259.00
2018-09-30T18:50:44.598Z,98263.00
2018-09-30T18:53:13.470Z,98267.00
2018-09-30T18:55:42.497Z,98259.00
2018-09-30T18:58:11.472Z,98250.00
2018-09-30T19:00:40.653Z,98246.00
2018-09-30T19:03:09.796Z,98240.00
2018-09-30T19:05:38.890Z,98247.00
2018-09-30T19:08:07.631Z,98247.00
2018-09-30T19:10:36.495Z,98252.00
2018-09-30T19:13:05.306Z,98243.00
2018-09-30T19:15:34.278Z,98240.00
2018-09-30T19:18:03.092Z,98244.00
2018-09-30T19:20:32.265Z,98243.00
2018-09-30T19:23:01.185Z,98232.00
2018-09-30T19:25:29.889Z,98234.00
2018-09-30T19:27:58.971Z,98223.00
2018-09-30T19:30:28.073Z,98229.00
2018-09-30T19:32:57.032Z,98219.00
2018-09-30T19:35:25.942Z,98224.00
2018-09-30T19:37:54.873Z,98225.00
2018-09-30T19:40:23.624Z,98226.00
2018-09-30T19:42:52.503Z,98218.00
2018-09-30T19:45:21.322Z,98217.00
2018-09-30T19:47:50.299Z,98217.00
2018-09-30T19:50:19.449Z,98216.00
2018-09-30T19:52:48.795Z,98213.00
2018-09-30T19:55:17.672Z,98208.00
2018-09-30T19:57:47.541Z,98204.00
2018-09-30T20:00:16.423Z,98201.00
2018-09-30T20:02:45.276Z,98204.00
2018-09-30T20:05:14.533Z,98207.00
2018-09-30T20:07:43.678Z,98201.00
2018-09-30T20:10:12.800Z,98204.00
2018-09-30T20:12:41.815Z,98205.00
2018-09-30T20:15:10.916Z,98206.00
2018-09-30T20:17:39.789Z,98197.00
2018-09-30T20:20:08.826Z,98201.00
2018-09-30T20:22:37.583Z,98195.00
2018-09-30T20:25:06.436Z,98194.00
2018-09-30T20:27:35.507Z,98195.00
2018-09-30T20:30:04.325Z,98200.00
2018-09-30T20:32:33.352Z,98193.00
2018-09-30T20:35:02.200Z,98205.00
2018-09-30T20:37:31.116Z,98207.00
2018-09-30T20:40:00.298Z,98203.00
2018-09-30T20:42:29.185Z,98202.00
2018-09-30T20:44:57.919Z,98204.00
2018-09-30T20:47:26.685Z,98206.00
2018-09-30T20:49:55.475Z,98196.00
2018-09-30T20:52:24.584Z,98196.00
2018-09-30T20:54:53.685Z,98199.00
2018-09-30T20:57:22.767Z,98207.00
2018-09-30T20:59:51.648Z,98200.00
2018-09-30T21:02:20.335Z,98204.00
2018-09-30T21:04:49.226Z,98191.00
2018-09-30T21:07:17.829Z,98195.00
2018-09-30T21:09:46.582Z,98197.00
2018-09-30T21:12:15.396Z,98195.00
2018-09-30T21:14:44.104Z,98196.00
2018-09-30T21:17:12.839Z,98190.00
2018-09-30T21:19:41.536Z,98191.00
2018-09-30T21:22:10.578Z,98203.00
2018-09-30T21:24:39.198Z,98208.00
2018-09-30T21:27:08.220Z,98201.00
2018-09-30T21:29:37.021Z,98203.00
2018-09-30T21:32:05.771Z,98199.00
2018-09-30T21:34:34.533Z,98196.00
2018-09-30T21:37:03.324Z,98194.00
2018-09-30T21:39:32.169Z,98193.00
2018-09-30T21:42:00.897Z,98184.00
2018-09-30T21:44:29.510Z,98191.00
2018-09-30T21:46:58.226Z,98181.00
2018-09-30T21:49:27.050Z,98182.00
2018-09-30T21:51:55.634Z,98182.00
2018-09-30T21:54:24.432Z,98179.00
2018-09-30T21:56:53.378Z,98182.00
2018-09-30T21:59:22.205Z,98175.00
2018-09-30T22:01:51.007Z,98184.00
2018-09-30T22:04:19.586Z,98179.00
2018-09-30T22:06:48.548Z,98179.00
2018-09-30T22:09:17.136Z,98174.00
2018-09-30T22:11:45.846Z,98169.00
2018-09-30T22:14:14.916Z,98173.00
2018-09-30T22:16:43.639Z,98163.00
2018-09-30T22:19:12.254Z,98164.00
2018-09-30T22:21:41.069Z,98163.00
2018-09-30T22:24:09.659Z,98166.00
2018-09-30T22:26:38.460Z,98159.00
2018-09-30T22:29:07.026Z,98164.00
2018-09-30T22:31:35.734Z,98170.00
2018-09-30T22:34:04.526Z,98163.00
2018-09-30T22:36:33.132Z,98165.00
2018-09-30T22:39:01.790Z,98151.00
2018-09-30T22:41:30.485Z,98161.00
2018-09-30T22:43:59.054Z,98158.00
2018-09-30T22:46:28.078Z,98151.00
2018-09-30T22:48:56.986Z,98144.00
2018-09-30T22:51:25.930Z,98144.00
2018-09-30T22:53:54.621Z,98145.00
2018-09-30T22:56:23.297Z,98153.00
2018-09-30T22:58:52.010Z,98149.00
2018-09-30T23:01:20.691Z,98152.00
2018-09-30T23:03:49.385Z,98158.00
2018-09-30T23:06:18.175Z,98161.00
2018-09-30T23:08:46.864Z,98159.00
2018-09-30T23:11:15.546Z,98159.00
2018-09-30T23:13:44.375Z,98161.00
2018-09-30T23:16:13.448Z,98164.00
2018-09-30T23:18:42.634Z,98165.00
2018-09-30T23:21:11.368Z,98155.00
2018-09-30T23:23:40.289Z,98151.00
2018-09-30T23:26:09.335Z,98165.00
2018-09-30T23:28:38.281Z,98152.00
2018-09-30T23:31:07.606Z,98149.00
2018-09-30T23:33:36.492Z,98146.00
2018-09-30T23:36:05.285Z,98152.00
2018-09-30T23:38:34.055Z,98151.00
2018-09-30T23:41:02.811Z,98148.00
2018-09-30T23:43:31.554Z,98150.00
2018-09-30T23:46:00.184Z,98140.00
2018-09-30T23:48:29.457Z,98153.00
2018-09-30T23:50:58.341Z,98146.00
2018-09-30T23:53:27.130Z,98147.00
2018-09-30T23:55:55.909Z,98149.00
2018-09-30T23:58:24.995Z,98152.00
